Time;durP1;ratioP1;P1;durP2;ratioP2;P2;SDS_P1;SDS_P2;PMS_P1;PMS_P2;Temp;Humidity;BMP_temperature;BMP_pressure;BME280_temperature;BME280_humidity;BME280_pressure;Samples;Min_cycle;Max_cycle;Signal;HPM_P1;HPM_P2
2023/12/03 00:01:46;660898.00;2.20;1139.50;102903.00;0.34;178.58;;;;;7.40;1.00;;;;;;2276396;61;1043;-85
2023/12/03 00:04:13;356639.00;1.19;615.27;0.00;0.00;0.62;;;;;7.40;1.00;;;;;;2276009;61;1548;-85
2023/12/03 00:06:40;157308.00;0.52;272.40;0.00;0.00;0.62;;;;;7.50;1.00;;;;;;2276242;61;1300;-85
2023/12/03 00:09:09;1116515.00;3.72;1939.98;40974.00;0.14;71.57;;;;;7.50;1.00;;;;;;2276272;61;1676;-85
2023/12/03 00:11:35;1178101.00;3.93;2050.68;95227.00;0.32;165.33;;;;;7.50;1.00;;;;;;2276363;61;1130;-85
2023/12/03 00:14:02;337049.00;1.12;581.60;122123.00;0.41;211.74;;;;;7.00;1.00;;;;;;2276396;61;1053;-84
2023/12/03 00:16:29;166602.00;0.56;288.41;0.00;0.00;0.62;;;;;7.10;1.00;;;;;;2276310;61;2005;-84
2023/12/03 00:18:57;287027.00;0.96;495.62;0.00;0.00;0.62;;;;;7.20;1.00;;;;;;2276285;61;1029;-84
2023/12/03 00:21:23;501183.00;1.67;863.86;0.00;0.00;0.62;;;;;7.00;1.00;;;;;;2275924;61;1735;-85
2023/12/03 00:23:50;892177.00;2.97;1542.38;0.00;0.00;0.62;;;;;7.20;1.00;;;;;;2276265;61;1052;-85
2023/12/03 00:26:19;191556.00;0.64;331.39;0.00;0.00;0.62;;;;;7.30;1.00;;;;;;2276161;61;1351;-84
2023/12/03 00:28:46;131135.00;0.44;227.29;0.00;0.00;0.62;;;;;7.40;1.00;;;;;;2276379;61;1139;-85
2023/12/03 00:31:13;1300274.00;4.33;2272.61;26387.00;0.09;46.33;;;;;7.30;1.00;;;;;;2276340;61;1059;-84
2023/12/03 00:33:39;1041287.00;3.47;1805.73;115946.00;0.39;201.09;;;;;7.40;1.00;;;;;;2276146;61;1110;-83
2023/12/03 00:36:07;314585.00;1.05;542.99;90515.00;0.30;157.20;;;;;7.30;1.00;;;;;;2276141;61;2009;-85
2023/12/03 00:38:34;174772.00;0.58;302.49;0.00;0.00;0.62;;;;;7.40;1.00;;;;;;2276241;61;1723;-84
2023/12/03 00:41:00;237083.00;0.79;409.73;0.00;0.00;0.62;;;;;7.60;1.00;;;;;;2276121;61;1545;-85
2023/12/03 00:43:29;289498.00;0.96;499.87;0.00;0.00;0.62;;;;;7.60;1.00;;;;;;2276343;61;933;-85
2023/12/03 00:45:57;230162.00;0.77;397.83;0.00;0.00;0.62;;;;;7.40;1.00;;;;;;2276172;61;1593;-83
2023/12/03 00:48:24;256070.00;0.85;442.39;0.00;0.00;0.62;;;;;7.40;1.00;;;;;;2276206;61;987;-85
2023/12/03 00:50:51;1725122.00;5.75;3074.34;143390.00;0.48;248.41;;;;;7.50;1.00;;;;;;2276076;61;1103;-84
2023/12/03 00:53:18;755515.00;2.52;1303.65;98485.00;0.33;170.96;;;;;7.50;1.00;;;;;;2276168;61;1054;-84
2023/12/03 00:55:45;323289.00;1.08;557.95;94299.00;0.31;163.73;;;;;6.90;1.00;;;;;;2276033;61;1922;-85
2023/12/03 00:58:11;117033144.00;390.11;64930912.00;0.00;0.00;0.62;;;;;6.60;1.00;;;;;;2276201;61;984;-86
2023/12/03 01:00:40;279352.00;0.93;482.42;0.00;0.00;0.62;;;;;6.60;1.00;;;;;;2276169;61;1205;-85
2023/12/03 01:03:07;228575.00;0.76;395.10;0.00;0.00;0.62;;;;;6.60;1.00;;;;;;2276166;61;1596;-85
2023/12/03 01:05:33;200013.00;0.67;345.95;0.00;0.00;0.62;;;;;6.10;1.00;;;;;;2276213;61;1405;-84
2023/12/03 01:08:00;117266128.00;390.89;65319816.00;0.00;0.00;0.62;;;;;5.80;1.00;;;;;;2276080;61;1007;-84
2023/12/03 01:10:27;589574.00;1.97;1016.22;253.00;0.00;1.06;;;;;6.00;1.00;;;;;;2278412;60;1262;-84
2023/12/03 01:12:54;1054828.00;3.52;1829.83;6334.00;0.02;11.60;;;;;6.00;1.00;;;;;;2279707;60;1031;-85
2023/12/03 01:15:21;510990.00;1.70;880.75;95095.00;0.32;165.10;;;;;6.10;1.00;;;;;;2277498;60;1919;-84
2023/12/03 01:17:49;787384.00;2.62;1359.13;103515.00;0.35;179.64;;;;;6.20;1.00;;;;;;2276172;61;2144;-84
2023/12/03 01:20:16;197905.00;0.66;342.32;0.00;0.00;0.62;;;;;6.40;1.00;;;;;;2275506;61;1129;-83
2023/12/03 01:22:43;117722.00;0.39;204.15;0.00;0.00;0.62;;;;;6.40;1.00;;;;;;2276004;61;1002;-84
2023/12/03 01:25:10;66901.00;0.22;116.40;0.00;0.00;0.62;;;;;6.40;1.00;;;;;;2276199;61;974;-83
2023/12/03 01:27:37;1701234.00;5.67;3027.82;57739.00;0.19;100.57;;;;;6.30;1.00;;;;;;2279378;60;1359;-84
2023/12/03 01:30:04;999081.00;3.33;1730.84;98854.00;0.33;171.59;;;;;6.20;1.00;;;;;;2280143;60;1012;-84
2023/12/03 01:32:31;223555.00;0.75;386.46;0.00;0.00;0.62;;;;;6.30;1.00;;;;;;2280028;60;1068;-83
2023/12/03 01:35:00;74193.00;0.25;129.01;0.00;0.00;0.62;;;;;6.60;1.00;;;;;;2280134;60;2002;-86
2023/12/03 01:37:27;966580.00;3.22;1673.37;0.00;0.00;0.62;;;;;6.50;1.00;;;;;;2280076;60;1302;-86
2023/12/03 01:39:53;1100991.00;3.67;1912.20;125231.00;0.42;217.10;;;;;6.40;1.00;;;;;;2279995;60;1582;-83
2023/12/03 01:42:21;949685.00;3.17;1643.56;91460.00;0.30;158.83;;;;;5.90;1.00;;;;;;2280069;60;1120;-84
2023/12/03 01:44:48;154437.00;0.51;267.45;0.00;0.00;0.62;;;;;6.30;1.00;;;;;;2279949;60;1110;-83
2023/12/03 01:47:15;303672.00;1.01;524.23;2062.00;0.01;4.19;;;;;6.20;1.00;;;;;;2279883;60;1351;-85
2023/12/03 01:49:42;381633.00;1.27;658.23;0.00;0.00;0.62;;;;;6.50;1.00;;;;;;2280043;60;1110;-85
2023/12/03 01:52:12;2028546.00;6.76;3683.10;243493.00;0.81;420.76;;;;;6.50;1.00;;;;;;2280133;60;913;-84
2023/12/03 01:54:43;120119200.00;400.40;70209000.00;93570.00;0.31;162.47;;;;;6.50;1.00;;;;;;2280129;60;1069;-84
2023/12/03 01:57:10;468661.00;1.56;807.89;96437.00;0.32;167.42;;;;;6.80;1.00;;;;;;2280005;60;2007;-84
2023/12/03 01:59:38;212636.00;0.71;367.67;0.00;0.00;0.62;;;;;7.00;1.00;;;;;;2280002;60;1103;-84
2023/12/03 02:02:05;313454.00;1.04;541.05;1916.00;0.01;3.94;;;;;7.30;1.00;;;;;;2280010;60;1436;-84
2023/12/03 02:04:32;922906.00;3.08;1596.39;12013.00;0.04;21.44;;;;;7.30;1.00;;;;;;2279889;60;1067;-85
2023/12/03 02:06:59;435460.00;1.45;750.78;91001.00;0.30;158.04;;;;;7.50;1.00;;;;;;2276740;60;1866;-86
2023/12/03 02:09:28;286662.00;0.96;494.99;89496.00;0.30;155.44;;;;;7.40;1.00;;;;;;2276019;60;1083;-87
2023/12/03 02:11:55;392340.00;1.31;676.64;98124.00;0.33;170.33;;;;;7.50;1.00;;;;;;2276014;60;1098;-85
2023/12/03 02:14:22;601951.00;2.01;1037.59;100998.00;0.34;175.29;;;;;7.50;1.00;;;;;;2276002;60;1031;-85
2023/12/03 02:16:49;272113.00;0.91;469.98;91413.00;0.30;158.75;;;;;7.30;1.00;;;;;;2275984;60;2004;-86
2023/12/03 02:19:16;346318.00;1.15;597.53;101956.00;0.34;176.95;;;;;7.30;1.00;;;;;;2275908;60;1723;-86
2023/12/03 02:21:44;267316.00;0.89;461.73;0.00;0.00;0.62;;;;;7.00;1.00;;;;;;2275979;60;1013;-85
2023/12/03 02:24:12;317846.00;1.06;548.60;0.00;0.00;0.62;;;;;7.10;1.00;;;;;;2275887;60;1527;-86
2023/12/03 02:26:39;75097.00;0.25;130.57;0.00;0.00;0.62;;;;;7.10;1.00;;;;;;2275899;60;1390;-85
2023/12/03 02:29:06;101804.00;0.34;176.69;0.00;0.00;0.62;;;;;7.00;1.00;;;;;;2276015;60;993;-86
2023/12/03 02:31:33;92880.00;0.31;161.28;0.00;0.00;0.62;;;;;7.10;1.00;;;;;;2275935;60;1114;-86
2023/12/03 02:34:07;167030.00;0.56;289.15;0.00;0.00;0.62;;;;;7.00;1.00;;;;;;2275958;60;1121;-86
2023/12/03 02:36:35;358261.00;1.19;618.06;0.00;0.00;0.62;;;;;7.10;1.00;;;;;;2275876;60;2008;-85
2023/12/03 02:39:02;258459.00;0.86;446.50;1084.00;0.00;2.50;;;;;6.90;1.00;;;;;;2275835;60;1102;-85
2023/12/03 02:41:30;112071.00;0.37;194.40;0.00;0.00;0.62;;;;;6.60;1.00;;;;;;2275987;60;967;-86
2023/12/03 02:43:57;46474.00;0.15;81.09;0.00;0.00;0.62;;;;;6.50;1.00;;;;;;2275950;60;987;-85
2023/12/03 02:46:24;156514.00;0.52;271.03;0.00;0.00;0.62;;;;;6.40;1.00;;;;;;2275867;60;1313;-86
2023/12/03 02:48:51;209184.00;0.70;361.73;0.00;0.00;0.62;;;;;6.50;1.00;;;;;;2275960;60;1097;-86
2023/12/03 02:51:18;93341.00;0.31;162.08;0.00;0.00;0.62;;;;;6.10;1.00;;;;;;2275659;60;1014;-86
2023/12/03 02:53:46;159735.00;0.53;276.58;0.00;0.00;0.62;;;;;6.50;1.00;;;;;;2275467;60;1206;-87
2023/12/03 02:56:13;192325.00;0.64;332.71;0.00;0.00;0.62;;;;;7.00;1.00;;;;;;2275500;60;2010;-86
2023/12/03 02:58:42;125575.00;0.42;217.70;0.00;0.00;0.62;;;;;6.30;1.00;;;;;;2275898;60;1072;-86
2023/12/03 03:01:09;66055.00;0.22;114.94;0.00;0.00;0.62;;;;;6.20;1.00;;;;;;2275845;60;1102;-84
2023/12/03 03:03:36;156539.00;0.52;271.08;0.00;0.00;0.62;;;;;5.80;1.00;;;;;;2275808;60;1548;-85
2023/12/03 03:06:04;163429.00;0.54;282.95;0.00;0.00;0.62;;;;;5.60;1.00;;;;;;2275842;60;1270;-85
2023/12/03 03:08:31;222843.00;0.74;385.24;0.00;0.00;0.62;;;;;5.90;1.00;;;;;;2275720;60;1152;-85
2023/12/03 03:10:58;221364.00;0.74;382.69;0.00;0.00;0.62;;;;;6.30;1.00;;;;;;2275810;60;1076;-86
2023/12/03 03:13:25;154001.00;0.51;266.70;0.00;0.00;0.62;;;;;6.60;1.00;;;;;;2275836;60;1027;-86
2023/12/03 03:15:54;163349.00;0.54;282.81;0.00;0.00;0.62;;;;;6.80;1.00;;;;;;2275778;60;2002;-85
2023/12/03 03:18:21;167822.00;0.56;290.51;0.00;0.00;0.62;;;;;6.90;1.00;;;;;;2275615;60;2179;-85
2023/12/03 03:20:47;118615.00;0.40;205.69;0.00;0.00;0.62;;;;;7.00;1.00;;;;;;2275705;60;1504;-85
2023/12/03 03:23:14;154200.00;0.51;267.05;22877.00;0.08;40.25;;;;;6.90;1.00;;;;;;2275810;60;1049;-85
2023/12/03 03:25:41;158960.00;0.53;275.25;0.00;0.00;0.62;;;;;6.70;1.00;;;;;;2275779;60;1398;-86
2023/12/03 03:28:08;275731.00;0.92;476.20;0.00;0.00;0.62;;;;;6.80;1.00;;;;;;2275783;60;1233;-85
2023/12/03 03:30:35;364915.00;1.22;629.50;0.00;0.00;0.62;;;;;7.00;1.00;;;;;;2275712;60;1676;-86
2023/12/03 03:33:03;143879.00;0.48;249.26;0.00;0.00;0.62;;;;;6.90;1.00;;;;;;2275741;60;1083;-85
2023/12/03 03:35:30;112741.00;0.38;195.56;0.00;0.00;0.62;;;;;7.10;1.00;;;;;;2275725;60;1286;-86
2023/12/03 03:37:57;143502.00;0.48;248.61;0.00;0.00;0.62;;;;;7.10;1.00;;;;;;2275679;60;1934;-84
2023/12/03 03:40:24;164966.00;0.55;285.59;0.00;0.00;0.62;;;;;7.10;1.00;;;;;;2275719;60;1086;-84
2023/12/03 03:42:50;54243.00;0.18;94.52;0.00;0.00;0.62;;;;;7.40;1.00;;;;;;2275774;60;1122;-85
2023/12/03 03:45:17;72776.00;0.24;126.56;0.00;0.00;0.62;;;;;7.60;1.00;;;;;;2275753;60;1284;-85
2023/12/03 03:47:44;60805.00;0.20;105.87;0.00;0.00;0.62;;;;;7.80;1.00;;;;;;2275704;60;1057;-85
2023/12/03 03:50:12;134799.00;0.45;233.60;0.00;0.00;0.62;;;;;7.80;1.00;;;;;;2275721;60;906;-85
2023/12/03 03:52:39;106293.00;0.35;184.43;0.00;0.00;0.62;;;;;7.70;1.00;;;;;;2275648;60;1098;-85
2023/12/03 03:55:07;50048.00;0.17;87.27;0.00;0.00;0.62;;;;;7.70;1.00;;;;;;2275726;60;1134;-85
2023/12/03 03:57:33;68406.00;0.23;119.01;0.00;0.00;0.62;;;;;7.70;1.00;;;;;;2275661;60;2002;-86
2023/12/03 04:00:00;102583.00;0.34;178.03;0.00;0.00;0.62;;;;;7.80;1.00;;;;;;2275605;60;1665;-85
2023/12/03 04:02:27;251850.00;0.84;435.13;19485.00;0.06;34.38;;;;;7.90;1.00;;;;;;2275900;60;1046;-85
2023/12/03 04:04:54;387592.00;1.29;668.48;3478.00;0.01;6.65;;;;;7.90;1.00;;;;;;2275978;60;1035;-85
2023/12/03 04:07:22;994295.00;3.31;1722.37;31371.00;0.10;54.96;;;;;7.90;1.00;;;;;;2275886;60;1376;-86
2023/12/03 04:09:49;757811.00;2.53;1307.64;22343.00;0.07;39.33;;;;;7.70;1.00;;;;;;2275972;60;1047;-86
2023/12/03 04:12:16;893863.00;2.98;1545.34;69234.00;0.23;120.44;;;;;7.80;1.00;;;;;;2275960;60;1077;-86
2023/12/03 04:14:43;764661.00;2.55;1319.56;27700.00;0.09;48.60;;;;;7.70;1.00;;;;;;2275863;60;1122;-88
2023/12/03 04:17:10;989583.00;3.30;1714.03;33496.00;0.11;58.63;;;;;7.70;1.00;;;;;;2275707;60;2004;-88
2023/12/03 04:19:37;1095918.00;3.65;1903.13;44413.00;0.15;77.52;;;;;7.70;1.00;;;;;;2275908;61;1078;-85
2023/12/03 04:22:04;1130143.00;3.77;1964.41;80292.00;0.27;139.54;;;;;7.80;1.00;;;;;;2275921;61;974;-86
2023/12/03 04:24:32;903138.00;3.01;1561.63;35493.00;0.12;62.09;;;;;7.80;1.00;;;;;;2275891;61;1063;-86
2023/12/03 04:26:59;1130515.00;3.77;1965.08;68977.00;0.23;119.99;;;;;7.90;1.00;;;;;;2275859;61;1364;-86
2023/12/03 04:29:26;948627.00;3.16;1641.69;13638.00;0.05;24.25;;;;;7.60;1.00;;;;;;2276297;61;1132;-86
2023/12/03 04:31:53;930443.00;3.10;1609.65;128275.00;0.43;222.35;;;;;7.30;1.00;;;;;;2276543;61;1026;-84
2023/12/03 04:34:20;1456713.00;4.86;2561.93;153611.00;0.51;266.03;;;;;7.20;1.00;;;;;;2276569;61;963;-86
2023/12/03 04:36:47;1004517.00;3.35;1740.47;32548.00;0.11;56.99;;;;;7.20;1.00;;;;;;2276490;61;2001;-85
2023/12/03 04:39:13;950522.00;3.17;1645.03;12697.00;0.04;22.62;;;;;7.10;1.00;;;;;;2276313;61;1690;-87
2023/12/03 04:41:42;1218237.00;4.06;2123.23;88869.00;0.30;154.35;;;;;7.30;1.00;;;;;;2276530;61;1114;-86
2023/12/03 04:44:09;1073055.00;3.58;1862.30;66980.00;0.22;116.54;;;;;6.60;1.00;;;;;;2276262;61;1711;-85
2023/12/03 04:46:39;1392850.00;4.64;2443.07;63965.00;0.21;111.33;;;;;6.30;1.00;;;;;;2276409;61;1596;-85
2023/12/03 04:49:06;821488.00;2.74;1418.62;68408.00;0.23;119.01;;;;;6.40;1.00;;;;;;2276540;61;1009;-85
2023/12/03 04:51:32;861124.00;2.87;1487.94;41598.00;0.14;72.65;;;;;6.70;1.00;;;;;;2276530;61;911;-85
2023/12/03 04:53:59;868460.00;2.89;1500.79;43921.00;0.15;76.67;;;;;6.80;1.00;;;;;;2276479;61;1055;-87
2023/12/03 04:56:26;766131.00;2.55;1322.12;64337.00;0.21;111.97;;;;;6.70;1.00;;;;;;2276512;61;1919;-86
2023/12/03 04:58:54;1376811.00;4.59;2413.38;151131.00;0.50;261.76;;;;;6.90;1.00;;;;;;2276497;61;1134;-85
2023/12/03 05:01:21;1086412.00;3.62;1886.14;69681.00;0.23;121.21;;;;;7.00;1.00;;;;;;2276414;61;999;-85
2023/12/03 05:03:48;1114182.00;3.71;1935.80;90358.00;0.30;156.93;;;;;6.90;1.00;;;;;;2276417;61;1104;-86
2023/12/03 05:06:15;927249.00;3.09;1604.03;37146.00;0.12;64.95;;;;;6.60;1.00;;;;;;2276454;61;1345;-86
2023/12/03 05:08:42;944673.00;3.15;1634.72;14622.00;0.05;25.96;;;;;6.80;1.00;;;;;;2276374;61;1767;-86
2023/12/03 05:11:09;978478.00;3.26;1694.39;29241.00;0.10;51.27;;;;;6.80;1.00;;;;;;2276458;61;1016;-86
2023/12/03 05:13:36;943763.00;3.15;1633.12;48305.00;0.16;84.25;;;;;7.00;1.00;;;;;;2276413;61;1722;-87
2023/12/03 05:16:05;1223358.00;4.08;2132.51;26129.00;0.09;45.88;;;;;6.90;1.00;;;;;;2276425;61;1357;-85
2023/12/03 05:18:32;1086413.00;3.62;1886.14;40586.00;0.14;70.90;;;;;6.80;1.00;;;;;;2276363;61;2026;-87
2023/12/03 05:20:59;1217029.00;4.06;2121.04;168891.00;0.56;292.36;;;;;6.60;1.00;;;;;;2276366;61;1589;-86
2023/12/03 05:23:26;1363082.00;4.54;2388.03;160902.00;0.54;278.59;;;;;6.50;1.00;;;;;;2276417;61;1577;-85
2023/12/03 05:25:53;1182610.00;3.94;2058.81;114970.00;0.38;199.41;;;;;6.50;1.00;;;;;;2276251;61;1676;-86
2023/12/03 05:28:21;1236367.00;4.12;2156.11;123251.00;0.41;213.69;;;;;6.90;1.00;;;;;;2276371;61;955;-85
2023/12/03 05:30:48;1076451.00;3.59;1868.36;167193.00;0.56;289.43;;;;;6.90;1.00;;;;;;2276362;61;1122;-85
2023/12/03 05:33:16;1516459.00;5.05;2674.13;141439.00;0.47;245.05;;;;;7.00;1.00;;;;;;2276403;61;1067;-85
2023/12/03 05:35:42;1051469.00;3.50;1823.85;154986.00;0.52;268.40;;;;;6.90;1.00;;;;;;2276297;61;1254;-86
2023/12/03 05:38:09;1162291.00;3.87;2022.19;91718.00;0.31;159.27;;;;;7.10;1.00;;;;;;2276306;61;1944;-87
2023/12/03 05:40:36;1017454.00;3.39;1763.41;131163.00;0.44;227.33;;;;;7.00;1.00;;;;;;2276221;61;1114;-84
2023/12/03 05:43:03;451727.00;1.51;778.75;84215.00;0.28;146.32;;;;;7.10;1.00;;;;;;2276338;61;1097;-85
2023/12/03 05:45:30;714407.00;2.38;1232.23;101372.00;0.34;175.94;;;;;7.00;1.00;;;;;;2276296;61;1343;-86
2023/12/03 05:47:56;596470.00;1.99;1028.13;95770.00;0.32;166.27;;;;;7.00;1.00;;;;;;2276344;61;1047;-86
2023/12/03 05:50:25;537024.00;1.79;925.59;100322.00;0.33;174.13;;;;;7.20;1.00;;;;;;2276406;61;1130;-85
2023/12/03 05:52:51;555758.00;1.85;957.89;97831.00;0.33;169.83;;;;;7.30;1.00;;;;;;2276373;61;920;-85
2023/12/03 05:55:18;508998.00;1.70;877.32;92367.00;0.31;160.39;;;;;7.20;1.00;;;;;;2276262;61;1362;-86
2023/12/03 05:57:45;602782.00;2.01;1039.02;96079.00;0.32;166.80;;;;;7.10;1.00;;;;;;2276270;61;2001;-85
2023/12/03 06:00:13;701449.00;2.34;1209.75;86346.00;0.29;150.00;;;;;6.70;1.00;;;;;;2276358;61;1118;-85
2023/12/03 06:02:39;527510.00;1.76;909.20;93183.00;0.31;161.80;;;;;6.60;1.00;;;;;;2276320;61;1098;-84
2023/12/03 06:05:07;538767.00;1.80;928.60;101804.00;0.34;176.69;;;;;6.70;1.00;;;;;;2276339;61;1071;-85
2023/12/03 06:07:35;525280.00;1.75;905.36;100654.00;0.34;174.70;;;;;6.70;1.00;;;;;;2276188;61;1289;-87
2023/12/03 06:10:03;408320.00;1.36;704.11;87269.00;0.29;151.59;;;;;6.30;1.00;;;;;;2276300;61;1074;-85
2023/12/03 06:12:30;336238.00;1.12;580.21;100195.00;0.33;173.91;;;;;6.00;1.00;;;;;;2276256;61;1137;-85
2023/12/03 06:14:57;543323.00;1.81;936.45;97467.00;0.32;169.20;;;;;5.90;1.00;;;;;;2276261;61;1024;-85
2023/12/03 06:17:24;270136.00;0.90;466.58;96130.00;0.32;166.89;;;;;5.90;1.00;;;;;;2276199;61;1914;-86
2023/12/03 06:19:50;385206.00;1.28;664.37;96258.00;0.32;167.11;;;;;6.00;1.00;;;;;;2276312;61;1050;-86
2023/12/03 06:22:17;363701.00;1.21;627.41;104487.00;0.35;181.32;;;;;6.40;1.00;;;;;;2276238;61;1050;-86
2023/12/03 06:24:46;59447.00;0.20;103.52;0.00;0.00;0.62;;;;;6.50;1.00;;;;;;2276250;61;1071;-85
2023/12/03 06:27:12;118615176.00;395.38;67602272.00;0.00;0.00;0.62;;;;;6.80;1.00;;;;;;2276200;61;1286;-86
2023/12/03 06:29:39;243439.00;0.81;420.67;0.00;0.00;0.62;;;;;6.70;1.00;;;;;;2276219;61;942;-86
2023/12/03 06:32:06;125038.00;0.42;216.77;0.00;0.00;0.62;;;;;6.70;1.00;;;;;;2276172;61;1005;-85
2023/12/03 06:34:33;79123.00;0.26;137.52;0.00;0.00;0.62;;;;;6.60;1.00;;;;;;2276253;61;1018;-86
2023/12/03 06:37:01;205265.00;0.68;354.99;0.00;0.00;0.62;;;;;6.60;1.00;;;;;;2276051;61;2004;-86
2023/12/03 06:39:27;119629.00;0.40;207.44;0.00;0.00;0.62;;;;;6.60;1.00;;;;;;2276142;61;1161;-86
2023/12/03 06:41:56;195101.00;0.65;337.49;0.00;0.00;0.62;;;;;6.50;1.00;;;;;;2276117;61;1579;-85
2023/12/03 06:44:22;128902.00;0.43;223.44;0.00;0.00;0.62;;;;;6.80;1.00;;;;;;2280744;40;3598;-88
2023/12/03 06:46:49;88888.00;0.30;154.39;0.00;0.00;0.62;;;;;6.80;1.00;;;;;;2277314;60;1433;-84
2023/12/03 06:49:16;205793.00;0.69;355.89;0.00;0.00;0.62;;;;;6.90;1.00;;;;;;2276155;61;1072;-84
2023/12/03 06:51:43;104008.00;0.35;180.49;0.00;0.00;0.62;;;;;6.40;1.00;;;;;;2275863;61;1098;-84
2023/12/03 06:54:10;70700.00;0.24;122.97;0.00;0.00;0.62;;;;;6.40;1.00;;;;;;2276143;61;1003;-85
2023/12/03 06:56:36;137477.00;0.46;238.22;0.00;0.00;0.62;;;;;6.90;1.00;;;;;;2276100;61;1368;-86
2023/12/03 06:59:05;96927.00;0.32;168.27;0.00;0.00;0.62;;;;;7.30;1.00;;;;;;2276048;61;2002;-85
2023/12/03 07:01:32;66431.00;0.22;115.59;0.00;0.00;0.62;;;;;7.60;1.00;;;;;;2276070;61;1047;-85
2023/12/03 07:03:58;50516.00;0.17;88.08;0.00;0.00;0.62;;;;;7.30;1.00;;;;;;2276060;61;2008;-85
2023/12/03 07:06:25;166313.00;0.55;287.92;0.00;0.00;0.62;;;;;6.80;1.00;;;;;;2276114;61;1378;-85
2023/12/03 07:08:52;83205.00;0.28;144.57;0.00;0.00;0.62;;;;;5.60;1.00;;;;;;2276052;61;2331;-87
2023/12/03 07:11:19;124485.00;0.41;215.82;0.00;0.00;0.62;;;;;4.80;1.00;;;;;;2276095;61;1027;-83
2023/12/03 07:13:46;116396.00;0.39;201.87;0.00;0.00;0.62;;;;;4.70;1.00;;;;;;2276067;61;1051;-84
2023/12/03 07:16:16;261663.00;0.87;452.01;0.00;0.00;0.62;;;;;4.60;1.00;;;;;;2275945;61;1402;-86
2023/12/03 07:18:43;337916.00;1.13;583.09;0.00;0.00;0.62;;;;;3.00;1.00;;;;;;2275911;60;1948;-85
2023/12/03 07:21:11;248438.00;0.83;429.26;0.00;0.00;0.62;;;;;2.50;1.00;;;;;;2276072;60;1106;-85
2023/12/03 07:23:38;130182.00;0.43;225.64;0.00;0.00;0.62;;;;;2.20;1.00;;;;;;2276060;60;1052;-86
2023/12/03 07:26:09;232551.00;0.78;401.94;0.00;0.00;0.62;;;;;1.50;1.00;;;;;;2276044;60;1378;-85
2023/12/03 07:28:37;213806.00;0.71;369.69;0.00;0.00;0.62;;;;;1.30;1.00;;;;;;2276042;60;1423;-85
2023/12/03 07:31:04;234833.00;0.78;405.86;0.00;0.00;0.62;;;;;1.30;1.00;;;;;;2276014;60;1766;-85
2023/12/03 07:33:33;554644.00;1.85;955.97;97096.00;0.32;168.56;;;;;1.80;1.00;;;;;;2276070;60;918;-85
2023/12/03 07:36:00;234947.00;0.78;406.06;0.00;0.00;0.62;;;;;1.30;1.00;;;;;;2276033;60;1299;-87
2023/12/03 07:40:56;239789.00;0.80;414.39;0.00;0.00;0.62;;;;;1.40;1.00;;;;;;2281842;60;1484;-85
2023/12/03 07:43:23;118942.00;0.40;206.26;0.00;0.00;0.62;;;;;0.80;1.00;;;;;;2279935;60;1013;-85
2023/12/03 07:45:50;207787.00;0.69;359.33;0.00;0.00;0.62;;;;;1.30;1.00;;;;;;2278828;60;1610;-85
2023/12/03 07:48:17;198788.00;0.66;343.84;0.00;0.00;0.62;;;;;1.90;1.00;;;;;;2275985;61;1527;-85
2023/12/03 07:50:45;166945.00;0.56;289.00;0.00;0.00;0.62;;;;;2.60;1.00;;;;;;2275973;61;1059;-86
2023/12/03 07:53:12;267920.00;0.89;462.77;0.00;0.00;0.62;;;;;2.90;1.00;;;;;;2295538;40;3599;-86
2023/12/03 07:55:39;171813.00;0.57;297.39;0.00;0.00;0.62;;;;;3.40;1.00;;;;;;2279873;61;1692;-85
2023/12/03 08:00:34;287350.00;0.96;496.17;4327.00;0.01;8.12;;;;;3.70;1.00;;;;;;2287873;60;1494;-86
2023/12/03 08:03:01;1378573.00;4.60;2416.64;185670.00;0.62;321.25;;;;;4.20;1.00;;;;;;2284068;60;1437;-86
2023/12/03 08:05:28;1044767.00;3.48;1811.92;102383.00;0.34;177.68;;;;;4.80;1.00;;;;;;2284293;60;1681;-87
2023/12/03 08:07:57;923753.00;3.08;1597.88;135106.00;0.45;234.13;;;;;5.00;1.00;;;;;;2280684;61;1051;-86
2023/12/03 08:10:25;744598.00;2.48;1284.67;100537.00;0.34;174.50;;;;;5.10;1.00;;;;;;2280676;61;1538;-85
2023/12/03 08:12:52;650350.00;2.17;1121.24;96376.00;0.32;167.32;;;;;5.30;1.00;;;;;;2280729;61;1042;-86
2023/12/03 08:15:19;232215.00;0.77;401.36;98478.00;0.33;170.94;;;;;5.40;1.00;;;;;;2280671;61;1544;-86
2023/12/03 08:17:46;489476.00;1.63;843.71;101716.00;0.34;176.53;;;;;5.30;1.00;;;;;;2280661;61;2011;-85
2023/12/03 08:20:12;330634.00;1.10;570.58;100763.00;0.34;174.89;;;;;5.70;1.00;;;;;;2280743;61;1004;-86
2023/12/03 08:22:39;369007.00;1.23;636.53;103930.00;0.35;180.36;;;;;6.10;1.00;;;;;;2280677;61;1647;-86
2023/12/03 08:25:08;247038.00;0.82;426.86;103023.00;0.34;178.79;;;;;6.10;1.00;;;;;;2280708;61;997;-85
2023/12/03 08:27:35;336089.00;1.12;579.95;129043.00;0.43;223.68;;;;;5.80;1.00;;;;;;2280701;61;1158;-86
2023/12/03 08:30:02;290073.00;0.97;500.85;107145.00;0.36;185.90;;;;;5.50;1.00;;;;;;2280677;61;1117;-85
2023/12/03 08:32:29;283362.00;0.94;489.32;101204.00;0.34;175.65;;;;;5.10;1.00;;;;;;2280673;61;1041;-85
2023/12/03 08:34:57;110439.00;0.37;191.59;0.00;0.00;0.62;;;;;5.30;1.00;;;;;;2280691;61;1126;-86
2023/12/03 08:37:23;126273.00;0.42;218.90;0.00;0.00;0.62;;;;;5.60;1.00;;;;;;2280510;61;1929;-86
2023/12/03 08:39:50;173924.00;0.58;301.03;0.00;0.00;0.62;;;;;5.70;1.00;;;;;;2280608;61;1019;-86
2023/12/03 08:42:23;221012.00;0.74;382.08;0.00;0.00;0.62;;;;;5.40;1.00;;;;;;2280526;61;1651;-87
2023/12/03 08:44:50;405513.00;1.35;699.28;93178.00;0.31;161.79;;;;;5.20;1.00;;;;;;2280603;61;1071;-87
2023/12/03 08:47:17;162376.00;0.54;281.13;0.00;0.00;0.62;;;;;5.90;1.00;;;;;;2280494;61;1286;-86
2023/12/03 08:49:44;145415.00;0.48;251.91;0.00;0.00;0.62;;;;;6.00;1.00;;;;;;2280500;61;909;-87
2023/12/03 08:52:11;222949.00;0.74;385.42;0.00;0.00;0.62;;;;;6.30;1.00;;;;;;2280630;61;1062;-86
2023/12/03 08:54:38;113310.00;0.38;196.54;0.00;0.00;0.62;;;;;6.20;1.00;;;;;;2280531;61;1005;-85
2023/12/03 08:57:06;235775.00;0.79;407.48;0.00;0.00;0.62;;;;;6.00;1.00;;;;;;2280518;61;1370;-86
2023/12/03 08:59:35;152315.00;0.51;263.80;0.00;0.00;0.62;;;;;5.80;1.00;;;;;;2280393;61;1923;-86
2023/12/03 09:04:39;1531878.00;5.11;2703.25;93789.00;0.31;162.85;;;;;5.80;1.00;;;;;;1250641;59;2708;-86
2023/12/03 09:07:06;175903.00;0.59;304.43;0.00;0.00;0.62;;;;;6.00;1.00;;;;;;2281010;60;1318;-85
2023/12/03 09:09:33;117516.00;0.39;203.80;0.00;0.00;0.62;;;;;5.90;1.00;;;;;;2280601;60;1039;-84
2023/12/03 09:12:00;159088.00;0.53;275.47;0.00;0.00;0.62;;;;;6.00;1.00;;;;;;2280597;60;1016;-86
2023/12/03 09:14:28;151246.00;0.50;261.95;0.00;0.00;0.62;;;;;6.10;1.00;;;;;;2280415;60;918;-85
2023/12/03 09:16:58;197159.00;0.66;341.03;0.00;0.00;0.62;;;;;5.90;1.00;;;;;;2280271;60;1283;-86
2023/12/03 09:19:25;296290.00;0.99;511.54;99456.00;0.33;172.63;;;;;5.60;1.00;;;;;;2280468;60;2038;-85
2023/12/03 09:21:52;389435.00;1.30;671.64;96295.00;0.32;167.18;;;;;5.90;1.00;;;;;;2280481;60;1055;-86
2023/12/03 09:24:19;99353.00;0.33;172.46;0.00;0.00;0.62;;;;;6.20;1.00;;;;;;2280483;60;1073;-85
2023/12/03 09:26:47;170794.00;0.57;295.63;0.00;0.00;0.62;;;;;6.10;1.00;;;;;;2280453;60;1382;-85
2023/12/03 09:29:15;89434.00;0.30;155.33;0.00;0.00;0.62;;;;;6.30;1.00;;;;;;2280335;60;1132;-86
2023/12/03 09:31:42;95909.00;0.32;166.51;0.00;0.00;0.62;;;;;6.40;1.00;;;;;;2280382;60;1784;-86
2023/12/03 09:34:10;90474.00;0.30;157.13;0.00;0.00;0.62;;;;;6.20;1.00;;;;;;2280364;60;1100;-85
2023/12/03 09:36:37;151831.00;0.51;262.96;0.00;0.00;0.62;;;;;6.10;1.00;;;;;;2280345;60;1342;-86
2023/12/03 09:39:05;211268.00;0.70;365.32;23557.00;0.08;41.43;;;;;6.60;1.00;;;;;;2280407;60;1919;-86
2023/12/03 09:41:33;164576.00;0.55;284.92;0.00;0.00;0.62;;;;;6.60;1.00;;;;;;2280370;60;996;-86
2023/12/03 09:44:09;26286.00;0.09;46.15;0.00;0.00;0.62;;;;;7.00;1.00;;;;;;2280403;60;1223;-84
2023/12/03 09:46:39;80171.00;0.27;139.33;0.00;0.00;0.62;;;;;7.10;1.00;;;;;;2280310;60;1421;-86
2023/12/03 09:49:14;276377.00;0.92;477.31;0.00;0.00;0.62;;;;;6.70;1.00;;;;;;2280350;60;1235;-86
2023/12/03 09:51:42;359332.00;1.20;619.90;102552.00;0.34;177.98;;;;;7.00;1.00;;;;;;2280403;60;1005;-87
2023/12/03 09:54:09;346609.00;1.16;598.03;106221.00;0.35;184.31;;;;;7.30;1.00;;;;;;2280373;60;1545;-86